Terminal Aerodrome Forecast
Issued by NWS Missoula, MT

Home | Current Version | Previous Version | Text Only | Print | Product List | Glossary On
Versions: 1 2 3 4 5 6 7 8 9 10 11 12 13 14 15 16 17 18 19 20 21 22 23 24 25 26 27 28 29 30
078
FTUS45 KMSO 211723
TAFMSO
TAF
KMSO 211723Z 2118/2218 VRB03KT 4SM -SN BR OVC050
     FM211900 30003KT 2SM -SN BR SCT020 OVC040
     FM212200 30004KT 4SM -SN BR SCT020 OVC040
     FM220100 VRB03KT 6SM BR BKN040
     FM220400 12003KT 4SM BR VCFG SCT010 OVC030
     FM220900 13002KT 2SM BR VCFG SCT005 BKN030
     FM221600 13003KT 5SM BR VCFG SCT005 SCT030=

USA.gov is the U.S. government's official web portal to all federal, state and local government web resources and services.